Two Hills, Canada
Current Conditions -  °F | °C
As of 7:00 AM on Thursday 18 Dec 2014 (Local Time) from CYED Reporting Station
Overcast Overcast  
Wind Chill: -8°   Ceiling: 100
Heat Index: -8°   Visibility: 0.12mi
Dew Point: -9°   Wind: 3mph
Humidity: 93%   Direction: 260°W
Pressure: 29.83"   Gusts: NA
Location:  53.72°N, 111.75°W
Report Text: CYED 181400Z AUTO 26003KT 1/8SM VV001 M08/M09 A2983 RMK ICGPAST HR SLP142
Loading
Personal Weather Stations






























Interactive Weather Map New forecast layout! Learn more

10-Day Weather Forecast

Advertisements
Track Severe Weather on mobile